This is the latest recevied weather packets stored in our database for station/object W4DEX-2. If no packets are shown the sender has not sent any weather packets the latest 10 day(s).
| Time | Temp. | Humidity | Pressure | Rain* | Wind** | Luminosity | Snow |
|---|---|---|---|---|---|---|---|
| 1777582202 | 23.89° C | 35% | 1008.3 hPa | 0 mm | 4.47 m/s, 180° | - | - |
| 1777580702 | 22.78° C | 39% | 1008.4 hPa | 0 mm | 4.47 m/s, 180° | - | - |
| 1777580402 | 23.33° C | 45% | 1008.4 hPa | 0 mm | 4.92 m/s, 182° | - | - |
| 1777579802 | 22.78° C | 41% | 1008.5 hPa | 0 mm | 4.02 m/s, 182° | - | - |
| 1777579502 | 22.78° C | 42% | 1008.7 hPa | 0 mm | 4.02 m/s, 182° | - | - |
| 1777579202 | 23.33° C | 41% | 1008.8 hPa | 0 mm | 4.02 m/s, 179° | - | - |
| 1777577403 | 22.22° C | 43% | 1009 hPa | 0 mm | 3.58 m/s, 188° | - | - |
| 1777577102 | 23.33° C | 40% | 1009.1 hPa | 0 mm | 3.58 m/s, 180° | - | - |
| 1777576202 | 23.89° C | 40% | 1009.3 hPa | 0 mm | 3.13 m/s, 174° | - | - |
| 1777575902 | 23.89° C | 39% | 1009.4 hPa | 0 mm | 2.68 m/s, 209° | - | - |
| 1777575605 | 23.89° C | 41% | 1009.1 hPa | 0 mm | 4.02 m/s, 180° | - | - |
| 1777575303 | 23.89° C | 41% | 1009.1 hPa | 0 mm | 4.02 m/s, 180° | - | - |
| 1777575003 | 22.22° C | 44% | 1009.4 hPa | 0 mm | 4.02 m/s, 180° | - | - |
| 1777574703 | 22.22° C | 44% | 1009.3 hPa | 0 mm | 3.58 m/s, 176° | - | - |
| 1777574402 | 22.22° C | 44% | 1009.3 hPa | 0 mm | 3.58 m/s, 182° | - | - |
| 1777574102 | 23.89° C | 40% | 1009.3 hPa | 0 mm | 3.58 m/s, 175° | - | - |
| 1777573803 | 23.33° C | 41% | 1009.2 hPa | 0 mm | 4.92 m/s, 183° | - | - |
| 1777573202 | 21.67° C | 43% | 1009.3 hPa | 0 mm | 4.47 m/s, 181° | - | - |
| 1777572902 | 22.22° C | 44% | 1009.4 hPa | 0 mm | 3.58 m/s, 180° | - | - |
| 1777572602 | 22.78° C | 42% | 1009.3 hPa | 0 mm | 4.47 m/s, 192° | - | - |
| 1777572302 | 21.67° C | 43% | 1009.3 hPa | 0 mm | 4.47 m/s, 184° | - | - |
| 1777572003 | 22.22° C | 45% | 1009.4 hPa | 0 mm | 3.58 m/s, 180° | - | - |
| 1777571703 | 22.22° C | 43% | 1009.3 hPa | 0 mm | 4.47 m/s, 183° | - | - |
| 1777571402 | 22.22° C | 43% | 1009.4 hPa | 0 mm | 4.47 m/s, 190° | - | - |
| 1777571103 | 22.22° C | 43% | 1009.3 hPa | 0 mm | 4.02 m/s, 180° | - | - |
* Rain latest hour (hover to see other rain measurements)
** Current wind speed in m/s (hover to see current wind gust speed)